AirNav   Bose Proflight Series 2 Wireless Aviation Headset
 
 1041 users online  

0AL5 Flomaton Airport
Flomaton, Alabama, USA

GOING TO FLOMATON?


FAA INFORMATION EFFECTIVE 07 NOVEMBER 2019

Location

FAA Identifier: 0AL5
Lat/Long: 31-01-56.0000N 087-15-10.0000W
31-01.933333N 087-15.166667W
31.0322222,-87.2527778
(estimated)
Elevation: 247 ft. / 75 m (estimated)
Variation: 00E (1990)
From city: 2 miles NE of FLOMATON, AL
Time zone: UTC -6 (UTC -5 during Daylight Saving Time)
Zip code: 36441

Airport Operations

Airport use: Private use. Permission required prior to landing
Activation date: 03/1993
Control tower: no
ARTCC: JACKSONVILLE CENTER
FSS: ANNISTON FLIGHT SERVICE STATION
Attendance: UNATNDD
Segmented circle: no

Airport Communications

WX AWOS-3PT at 12J (10 nm E): 119.325 (251-809-2987)

Nearby radio navigation aids

VOR radial/distance  VOR name  Freq  Var
MVCr165/26.1MONROEVILLE VORTAC116.8004E
CEWr290/32.0CRESTVIEW VORTAC115.9003E
NUNr006/(33.9)SAUFLEY VOR108.8001E

 
NDB name  Hdg/Dist  Freq  Var  ID
PICKENS356/35.932602WPKZ .--. -.- --..

Airport Services

Runway Information

Runway 15/33

Dimensions: 2200 x 100 ft. / 671 x 30 m
Surface: turf
RUNWAY 15  RUNWAY 33
Traffic pattern: leftleft
Obstructions: none144 ft. tower, 2300 ft. from runway

Airport Ownership and Management from official FAA records

Ownership: Privately-owned
Owner: ALLEN HENDERSON
P.O. BOX 301
FLOMATON, AL 36441
Phone (251) 513-9533
Manager: ALLEN HENDERSON
P.O. BOX 301
FLOMATON, AL 36441
Phone (251) 513-9533

Airport Operational Statistics

Aircraft based on the field: 3
Single engine airplanes: 3
    

Additional Remarks

FOR CD CTC PENSACOLA APCH AT 850-266-6884 OR 850-266-6885.

Instrument Procedures

There are no published instrument procedures at 0AL5.

Some nearby airports with instrument procedures:

12J - Brewton Municipal Airport (10 nm E)
0R1 - Atmore Municipal Airport (10 nm W)
KNSE - Whiting Field Naval Air Station North (22 nm SE)
KNDZ - Whiting Field Naval Air Station South (23 nm SE)
KGZH - Evergreen Regional Airport/Middleton Field (25 nm NE)
 
Loc | Ops | Rwys | IFR | FBO | Links
Com | Nav | Svcs | Stats | Notes
Area around 0AL5 (Flomaton Airport)
 
Road maps at: MapQuest Bing Google
 
Aerial photo
No photo
 
Sectional chart

 
Airport distance calculator
Flying to Flomaton Airport? Find the distance to fly.

From to 0AL5

Sunrise and sunset
Times for 22-Nov-2019
 Local
(UTC-6)
 Zulu
(UTC)
Morning civil twilight05:5711:57
Sunrise06:2312:23
Sunset16:4722:47
Evening civil twilight17:1323:13

Current date and time
Zulu (UTC)  23-Nov-2019 02:38:35
Local (UTC-6)  22-Nov-2019 20:38:35
 
METAR
KNSE 
23nm SE 
230156Z 00000KT 10SM SCT050 BKN150 BKN250 17/16 A3002 RMK AO2 SLP153 T01670156 $
KNDZ 
23nm SE 
230156Z 16004KT 10SM FEW048 SCT150 BKN250 18/17 A3002 RMK AO2 SLP153 T01830167 $
KGZH 
25nm NE 
230153Z AUTO 00000KT 10SM CLR 19/15 A3001 RMK AO2 SLP162 T01890150
KPNS 
33nm S 
230153Z 11004KT 10SM CLR 19/18 A3001 RMK AO2 SLP164 T01940183
KNPA 
41nm S 
230156Z 00000KT 9SM BKN150 BKN250 17/17 A3001 RMK AO2 SLP164 T01670167
KCEW 
41nm SE 
230153Z AUTO 00000KT 10SM CLR 16/15 A3004 RMK AO2 SLP172 T01610150
KEGI 
45nm SE 
230056Z AUTO 16005KT 10SM SCT210 17/17 A3003 RMK AO2 SLP170 T01720172 $
TAF
KNSE 
23nm SE 
2223/2323 17005KT 9999 SCT025 SCT050 BKN150 BKN250 QNH2997INS TEMPO 2300/2305 BKN025 BKN050 FM230600 19005KT 9000 BR FEW008 BKN015 OVC025 QNH2993INS TEMPO 2307/2312 6000 BR BKN008 OVC015 FM231400 21008G13KT 9999 VCSH SCT008 BKN015 BKN025 OVC040 QNH2988INS TEMPO 2315/2316 8000 SHRA BR BKN010 OVC015 FM231700 22012G16KT 9000 SHRA BR VCTS BKN015 BKN025CB BKN050 OVC100 QNH2985INS TEMPO 2317/2323 VRB15G30KT 4800 TSRA BR BKN015CB OVC025 AUTOMATED SENSOR METWATCH 2305 TIL 2512 T17/2306Z T21/2318Z FN2003
NOTAMs
Click for the latest NOTAMs
NOTAMs are issued by the DoD/FAA and will open in a separate window not controlled by AirNav.

 

 
 

Would you like to see your business listed on this page?

 If your business provides an interesting product or service to pilots, flight crews, aircraft, or users of the Flomaton Airport, you should consider listing it here.  To start the listing process, click on the button below
 
Add a business
 

Other Pages about Flomaton Airport

Update a link
 
Copyright © AirNav, LLC. All rights reserved. Privacy Policy  Contact